createdAt,value
2018-11-21T00:00:42.702Z,25.34
2018-11-21T00:03:09.397Z,25.56
2018-11-21T00:05:36.034Z,25.70
2018-11-21T00:08:02.672Z,25.85
2018-11-21T00:10:30.307Z,25.92
2018-11-21T00:12:56.954Z,25.88
2018-11-21T00:15:23.596Z,25.78
2018-11-21T00:17:50.243Z,25.73
2018-11-21T00:20:16.871Z,25.74
2018-11-21T00:22:43.523Z,25.65
2018-11-21T00:25:10.159Z,25.65
2018-11-21T00:27:36.797Z,25.63
2018-11-21T00:30:03.490Z,25.57
2018-11-21T00:32:30.125Z,25.59
2018-11-21T00:34:56.831Z,25.63
2018-11-21T00:37:23.475Z,25.63
2018-11-21T00:39:50.120Z,25.55
2018-11-21T00:42:16.774Z,25.58
2018-11-21T00:44:43.416Z,25.58
2018-11-21T00:47:10.132Z,25.62
2018-11-21T00:49:36.868Z,25.64
2018-11-21T00:52:03.501Z,25.58
2018-11-21T00:54:30.225Z,25.57
2018-11-21T00:56:56.869Z,25.57
2018-11-21T00:59:23.564Z,25.54
2018-11-21T01:01:50.202Z,25.59
2018-11-21T01:04:16.840Z,25.58
2018-11-21T01:06:43.496Z,25.53
2018-11-21T01:09:10.194Z,25.55
2018-11-21T01:11:36.859Z,25.56
2018-11-21T01:14:03.507Z,25.56
2018-11-21T01:16:30.147Z,25.56
2018-11-21T01:18:56.797Z,25.53
2018-11-21T01:21:25.237Z,25.54
2018-11-21T01:23:50.127Z,25.56
2018-11-21T01:26:16.776Z,25.55
2018-11-21T01:28:43.469Z,25.52
2018-11-21T01:31:10.110Z,25.51
2018-11-21T01:33:36.797Z,25.53
2018-11-21T01:36:03.438Z,25.52
2018-11-21T01:38:30.072Z,25.47
2018-11-21T01:40:56.726Z,25.50
2018-11-21T01:43:23.377Z,25.50
2018-11-21T01:45:50.014Z,25.50
2018-11-21T01:48:16.706Z,25.49
2018-11-21T01:50:43.346Z,25.48
2018-11-21T01:53:09.992Z,25.47
2018-11-21T01:55:36.688Z,25.46
2018-11-21T01:58:03.325Z,25.45
2018-11-21T02:00:29.976Z,25.48
2018-11-21T02:02:56.617Z,25.45
2018-11-21T02:05:23.374Z,25.46
2018-11-21T02:07:50.115Z,25.48
2018-11-21T02:10:16.773Z,25.43
2018-11-21T02:12:43.409Z,25.42
2018-11-21T02:15:10.100Z,25.44
2018-11-21T02:17:36.732Z,25.40
2018-11-21T02:20:03.370Z,25.41
2018-11-21T02:22:30.074Z,25.41
2018-11-21T02:24:56.751Z,25.40
2018-11-21T02:27:23.354Z,25.42
2018-11-21T02:29:49.998Z,25.41
2018-11-21T02:32:16.692Z,25.42
2018-11-21T02:34:43.350Z,25.41
2018-11-21T02:37:10.039Z,25.37
2018-11-21T02:39:36.681Z,25.40
2018-11-21T02:42:03.375Z,25.41
2018-11-21T02:44:30.009Z,25.44
2018-11-21T02:46:56.678Z,25.41
2018-11-21T02:49:23.384Z,25.36
2018-11-21T02:51:50.029Z,25.39
2018-11-21T02:54:16.664Z,25.40
2018-11-21T02:56:44.361Z,25.39
2018-11-21T02:59:09.947Z,25.40
2018-11-21T03:01:36.661Z,25.39
2018-11-21T03:04:04.334Z,25.40
2018-11-21T03:06:30.980Z,25.41
2018-11-21T03:08:57.664Z,25.38
2018-11-21T03:11:24.305Z,25.42
2018-11-21T03:13:53.527Z,25.39
2018-11-21T03:16:20.231Z,25.41
2018-11-21T03:18:46.869Z,25.43
2018-11-21T03:21:13.555Z,25.41
2018-11-21T03:23:40.196Z,25.41
2018-11-21T03:26:06.982Z,25.41
2018-11-21T03:28:33.629Z,25.40
2018-11-21T03:31:00.261Z,25.41
2018-11-21T03:33:26.942Z,25.48
2018-11-21T03:35:53.611Z,25.41
2018-11-21T03:38:20.274Z,25.40
2018-11-21T03:40:46.917Z,25.42
2018-11-21T03:43:13.563Z,25.45
2018-11-21T03:45:40.276Z,25.42
2018-11-21T03:48:06.928Z,25.43
2018-11-21T03:50:33.578Z,25.44
2018-11-21T03:53:00.269Z,25.43
2018-11-21T03:55:26.912Z,25.43
2018-11-21T03:57:53.615Z,25.41
2018-11-21T04:00:20.265Z,25.42
2018-11-21T04:02:46.950Z,25.44
2018-11-21T04:05:13.593Z,25.46
2018-11-21T04:07:40.287Z,25.35
2018-11-21T04:10:06.933Z,25.34
2018-11-21T04:12:33.573Z,25.25
2018-11-21T04:15:00.285Z,26.03
2018-11-21T04:17:26.926Z,26.96
2018-11-21T04:19:53.648Z,27.46
2018-11-21T04:22:20.263Z,27.46
2018-11-21T04:24:46.898Z,27.37
2018-11-21T04:27:13.570Z,28.17
2018-11-21T04:29:40.265Z,28.61
2018-11-21T04:32:06.900Z,28.93
2018-11-21T04:34:33.585Z,28.88
2018-11-21T04:37:00.268Z,28.69
2018-11-21T04:39:26.915Z,27.94
2018-11-21T04:41:53.550Z,27.46
2018-11-21T04:44:20.195Z,27.04
2018-11-21T04:46:46.978Z,26.93
2018-11-21T04:49:13.618Z,26.79
2018-11-21T04:51:40.264Z,26.59
2018-11-21T04:54:06.905Z,26.54
2018-11-21T04:56:33.573Z,26.47
2018-11-21T04:59:00.223Z,26.41
2018-11-21T05:01:26.913Z,26.38
2018-11-21T05:03:53.548Z,26.33
2018-11-21T05:06:20.189Z,26.30
2018-11-21T05:08:46.836Z,26.28
2018-11-21T05:11:13.561Z,26.64
2018-11-21T05:13:40.198Z,26.27
2018-11-21T05:16:06.886Z,26.29
2018-11-21T05:18:33.524Z,26.44
2018-11-21T05:21:00.216Z,26.42
2018-11-21T05:23:26.914Z,26.65
2018-11-21T05:25:53.556Z,26.49
2018-11-21T05:28:20.249Z,26.54
2018-11-21T05:30:46.884Z,26.49
2018-11-21T05:33:13.585Z,26.50
2018-11-21T05:35:40.234Z,26.53
2018-11-21T05:38:06.863Z,26.56
2018-11-21T05:40:33.520Z,26.60
2018-11-21T05:43:00.207Z,26.59
2018-11-21T05:45:26.856Z,26.67
2018-11-21T05:47:53.610Z,26.55
2018-11-21T05:50:20.250Z,26.59
2018-11-21T05:52:46.964Z,26.65
2018-11-21T05:55:13.656Z,26.61
2018-11-21T05:57:40.306Z,26.68
2018-11-21T06:00:06.946Z,26.71
2018-11-21T06:02:33.600Z,26.77
2018-11-21T06:05:00.297Z,26.81
2018-11-21T06:07:26.946Z,26.80
2018-11-21T06:09:53.584Z,26.80
2018-11-21T06:12:20.226Z,27.08
2018-11-21T06:14:46.917Z,26.90
2018-11-21T06:17:13.710Z,26.85
2018-11-21T06:19:40.346Z,26.77
2018-11-21T06:22:07.036Z,26.71
2018-11-21T06:24:33.688Z,26.87
2018-11-21T06:27:00.343Z,26.92
2018-11-21T06:29:26.980Z,26.93
2018-11-21T06:31:53.660Z,26.88
2018-11-21T06:34:20.300Z,26.55
2018-11-21T06:36:47.008Z,26.66
2018-11-21T06:39:13.646Z,26.88
2018-11-21T06:41:40.307Z,26.94
2018-11-21T06:44:06.976Z,26.96
2018-11-21T06:46:33.678Z,27.14
2018-11-21T06:49:00.315Z,27.03
2018-11-21T06:51:27.068Z,27.43
2018-11-21T06:53:53.767Z,27.46
2018-11-21T06:56:20.418Z,27.48
2018-11-21T06:58:47.201Z,27.63
2018-11-21T07:01:13.968Z,27.77
2018-11-21T07:03:40.611Z,27.77
2018-11-21T07:06:07.327Z,27.91
2018-11-21T07:08:34.018Z,28.15
2018-11-21T07:11:00.666Z,28.29
2018-11-21T07:13:27.375Z,28.10
2018-11-21T07:15:54.022Z,28.32
2018-11-21T07:18:20.712Z,28.15
2018-11-21T07:20:47.426Z,28.18
2018-11-21T07:23:14.067Z,28.15
2018-11-21T07:25:40.768Z,28.29
2018-11-21T07:28:12.951Z,28.12
2018-11-21T07:30:34.165Z,28.30
2018-11-21T07:33:00.805Z,27.98
2018-11-21T07:35:27.503Z,28.11
2018-11-21T07:37:54.160Z,27.88
2018-11-21T07:40:20.843Z,28.22
2018-11-21T07:42:48.569Z,27.84
2018-11-21T07:45:15.296Z,27.76
2018-11-21T07:47:41.942Z,28.25
2018-11-21T07:50:08.601Z,28.30
2018-11-21T07:52:35.250Z,28.16
2018-11-21T07:55:01.893Z,28.03
2018-11-21T07:57:28.595Z,28.37
2018-11-21T07:59:55.229Z,28.27
2018-11-21T08:02:22.082Z,28.53
2018-11-21T08:04:48.786Z,28.95
2018-11-21T08:07:15.591Z,28.93
2018-11-21T08:09:42.329Z,28.91
2018-11-21T08:12:08.972Z,28.92
2018-11-21T08:14:35.630Z,28.73
2018-11-21T08:19:49.170Z,28.59
2018-11-21T08:22:15.825Z,28.62
2018-11-21T08:24:44.644Z,28.87
2018-11-21T08:27:11.338Z,28.67
2018-11-21T08:29:37.988Z,28.84
2018-11-21T08:32:04.654Z,28.37
2018-11-21T08:34:31.311Z,28.66
2018-11-21T08:36:57.959Z,28.79
2018-11-21T08:39:24.655Z,28.70
2018-11-21T08:41:52.365Z,28.76
2018-11-21T08:44:20.280Z,28.73
2018-11-21T08:46:45.665Z,28.70
2018-11-21T08:49:12.327Z,28.76
2018-11-21T08:51:39.016Z,28.82
2018-11-21T08:54:05.665Z,28.86
2018-11-21T08:56:32.582Z,28.60
2018-11-21T08:58:59.014Z,28.68
2018-11-21T09:01:28.522Z,28.73
2018-11-21T09:03:55.230Z,28.67
2018-11-21T09:06:22.016Z,28.64
2018-11-21T09:08:49.101Z,28.66
2018-11-21T09:11:15.782Z,28.91
2018-11-21T09:13:42.536Z,28.91
2018-11-21T09:16:09.269Z,29.20
2018-11-21T09:18:35.960Z,28.70
2018-11-21T09:21:02.735Z,28.67
2018-11-21T09:23:29.425Z,28.74
2018-11-21T09:25:56.118Z,28.54
2018-11-21T09:28:22.799Z,28.65
2018-11-21T09:30:49.599Z,28.84
2018-11-21T09:33:17.471Z,28.83
2018-11-21T09:35:45.342Z,28.62
2018-11-21T09:38:12.006Z,29.07
2018-11-21T09:40:38.820Z,28.98
2018-11-21T09:43:05.516Z,29.11
2018-11-21T09:45:32.226Z,28.91
2018-11-21T09:47:58.873Z,28.96
2018-11-21T09:50:25.523Z,29.15
2018-11-21T09:52:52.182Z,28.74
2018-11-21T09:55:18.851Z,28.95
2018-11-21T09:57:45.537Z,29.02
2018-11-21T10:00:12.326Z,28.70
2018-11-21T10:02:40.089Z,29.02
2018-11-21T10:05:06.727Z,29.43
2018-11-21T10:07:33.364Z,29.35
2018-11-21T10:10:00.006Z,29.34
2018-11-21T10:12:26.645Z,29.25
2018-11-21T10:14:53.283Z,29.17
2018-11-21T10:17:19.937Z,28.94
2018-11-21T10:19:46.593Z,28.96
2018-11-21T10:22:13.235Z,28.82
2018-11-21T10:24:39.885Z,28.84
2018-11-21T10:27:07.011Z,28.72
2018-11-21T10:29:33.654Z,28.67
2018-11-21T10:32:00.782Z,28.58
2018-11-21T10:34:27.630Z,28.28
2018-11-21T10:36:54.352Z,28.35
2018-11-21T10:39:21.000Z,28.39
2018-11-21T10:41:47.646Z,28.27
2018-11-21T10:44:14.363Z,28.33
2018-11-21T10:46:41.103Z,28.59
2018-11-21T10:49:07.846Z,28.61
2018-11-21T10:51:34.474Z,28.73
2018-11-21T10:54:01.149Z,28.70
2018-11-21T10:56:27.946Z,28.68
2018-11-21T10:58:54.595Z,28.45
2018-11-21T11:01:24.406Z,28.50
2018-11-21T11:03:51.075Z,28.68
2018-11-21T11:06:17.874Z,28.66
2018-11-21T11:08:44.557Z,28.62
2018-11-21T11:11:11.204Z,28.48
2018-11-21T11:13:37.877Z,28.74
2018-11-21T11:16:04.850Z,28.52
2018-11-21T11:18:31.580Z,28.48
2018-11-21T11:20:58.650Z,28.67
2018-11-21T11:23:25.372Z,28.60
2018-11-21T11:25:52.024Z,28.41
2018-11-21T11:28:18.678Z,28.29
2018-11-21T11:30:45.316Z,28.28
2018-11-21T11:33:11.958Z,28.43
2018-11-21T11:35:38.667Z,28.25
2018-11-21T11:38:05.375Z,28.57
2018-11-21T11:40:32.071Z,31.12
2018-11-21T11:42:58.728Z,32.50
2018-11-21T11:45:25.433Z,31.88
2018-11-21T11:47:52.166Z,31.12
2018-11-21T11:50:18.839Z,31.46
2018-11-21T11:52:45.490Z,31.29
2018-11-21T11:55:12.136Z,31.76
2018-11-21T11:57:38.902Z,31.33
2018-11-21T12:00:05.567Z,31.30
2018-11-21T12:02:33.423Z,30.96
2018-11-21T12:05:07.929Z,31.17
2018-11-21T12:07:34.618Z,31.31
2018-11-21T12:10:01.993Z,31.52
2018-11-21T12:12:28.632Z,31.36
2018-11-21T12:14:55.420Z,31.11
2018-11-21T12:17:22.075Z,31.17
2018-11-21T12:19:48.901Z,31.07
2018-11-21T12:22:16.770Z,31.10
2018-11-21T12:24:44.456Z,31.05
2018-11-21T12:27:11.371Z,30.64
2018-11-21T12:29:38.372Z,30.75
2018-11-21T12:32:05.150Z,30.80
2018-11-21T12:34:31.880Z,30.56
2018-11-21T12:36:58.544Z,30.70
2018-11-21T12:39:25.225Z,30.58
2018-11-21T12:41:51.868Z,30.61
2018-11-21T12:44:19.029Z,30.52
2018-11-21T12:46:45.697Z,29.89
2018-11-21T12:49:12.426Z,29.98
2018-11-21T12:51:39.079Z,30.15
2018-11-21T12:54:05.837Z,30.19
2018-11-21T12:56:32.476Z,29.96
2018-11-21T12:58:59.127Z,30.13
2018-11-21T13:01:25.785Z,30.01
2018-11-21T13:03:52.446Z,29.71
2018-11-21T13:06:19.086Z,31.05
2018-11-21T13:08:45.780Z,30.26
2018-11-21T13:11:12.448Z,30.08
2018-11-21T13:13:39.093Z,30.25
2018-11-21T13:16:05.737Z,29.95
2018-11-21T13:18:32.398Z,30.43
2018-11-21T13:20:59.139Z,31.10
2018-11-21T13:23:25.802Z,30.84
2018-11-21T13:25:52.493Z,30.82
2018-11-21T13:28:19.254Z,30.19
2018-11-21T13:30:45.926Z,30.31
2018-11-21T13:33:12.632Z,30.21
2018-11-21T13:35:39.269Z,29.86
2018-11-21T13:38:05.927Z,30.43
2018-11-21T13:40:32.625Z,30.06
2018-11-21T13:42:59.280Z,29.62
2018-11-21T13:45:25.956Z,30.10
2018-11-21T13:47:52.594Z,30.14
2018-11-21T13:50:19.286Z,29.98
2018-11-21T13:52:47.308Z,29.97
2018-11-21T13:55:13.783Z,29.80
2018-11-21T13:57:40.436Z,29.58
2018-11-21T14:00:07.126Z,29.66
2018-11-21T14:02:37.791Z,29.73
2018-11-21T14:05:04.436Z,29.55
2018-11-21T14:07:31.142Z,29.68
2018-11-21T14:09:57.780Z,29.55
2018-11-21T14:12:24.451Z,29.53
2018-11-21T14:14:52.209Z,29.42
2018-11-21T14:17:18.846Z,29.58
2018-11-21T14:19:45.502Z,29.49
2018-11-21T14:22:12.163Z,29.41
2018-11-21T14:24:38.882Z,29.32
2018-11-21T14:27:05.544Z,29.11
2018-11-21T14:29:33.479Z,29.51
2018-11-21T14:31:58.934Z,29.45
2018-11-21T14:34:25.569Z,29.51
2018-11-21T14:36:52.219Z,29.41
2018-11-21T14:39:18.858Z,29.48
2018-11-21T14:41:45.505Z,29.67
2018-11-21T14:44:13.294Z,29.72
2018-11-21T14:46:39.942Z,29.54
2018-11-21T14:49:06.614Z,29.41
2018-11-21T14:51:35.374Z,29.13
2018-11-21T14:54:02.204Z,29.17
2018-11-21T14:56:29.341Z,29.23
2018-11-21T14:58:55.598Z,28.95
2018-11-21T15:01:22.253Z,28.95
2018-11-21T15:03:48.925Z,28.59
2018-11-21T15:06:15.579Z,28.77
2018-11-21T15:08:42.272Z,28.79
2018-11-21T15:11:08.973Z,28.71
2018-11-21T15:13:35.644Z,28.85
2018-11-21T15:16:02.298Z,28.73
2018-11-21T15:18:28.958Z,28.74
2018-11-21T15:20:55.623Z,28.75
2018-11-21T15:23:22.263Z,28.73
2018-11-21T15:25:48.956Z,28.34
2018-11-21T15:28:15.606Z,28.16
2018-11-21T15:30:42.252Z,28.31
2018-11-21T15:33:08.916Z,28.53
2018-11-21T15:35:35.627Z,28.56
2018-11-21T15:38:02.346Z,28.53
2018-11-21T15:40:29.003Z,28.48
2018-11-21T15:42:55.650Z,28.33
2018-11-21T15:45:22.298Z,28.33
2018-11-21T15:47:48.951Z,28.29
2018-11-21T15:50:15.676Z,28.04
2018-11-21T15:52:42.375Z,28.09
2018-11-21T15:55:09.010Z,28.05
2018-11-21T15:57:35.648Z,27.89
2018-11-21T16:00:02.302Z,27.97
2018-11-21T16:02:28.949Z,28.12
2018-11-21T16:04:55.575Z,28.05
2018-11-21T16:07:22.224Z,27.76
2018-11-21T16:09:48.878Z,27.79
2018-11-21T16:12:15.573Z,28.03
2018-11-21T16:14:42.220Z,27.63
2018-11-21T16:17:08.866Z,27.94
2018-11-21T16:19:43.761Z,27.51
2018-11-21T16:22:10.464Z,27.71
2018-11-21T16:24:37.103Z,27.36
2018-11-21T16:27:03.915Z,27.36
2018-11-21T16:29:33.082Z,27.28
2018-11-21T16:31:57.187Z,26.98
2018-11-21T16:34:23.845Z,26.87
2018-11-21T16:36:50.481Z,26.93
2018-11-21T16:39:17.120Z,27.00
2018-11-21T16:41:43.778Z,26.93
2018-11-21T16:44:10.421Z,26.85
2018-11-21T16:46:37.148Z,26.94
2018-11-21T16:49:03.808Z,26.94
2018-11-21T16:51:30.508Z,26.71
2018-11-21T16:53:57.218Z,26.85
2018-11-21T16:56:23.943Z,26.79
2018-11-21T16:58:50.552Z,26.78
2018-11-21T17:01:17.196Z,26.83
2018-11-21T17:03:43.932Z,26.79
2018-11-21T17:06:13.233Z,26.78
2018-11-21T17:08:39.877Z,26.69
2018-11-21T17:11:06.531Z,26.65
2018-11-21T17:13:33.235Z,26.63
2018-11-21T17:15:59.923Z,26.60
2018-11-21T17:18:26.526Z,26.55
2018-11-21T17:20:53.220Z,26.52
2018-11-21T17:23:19.851Z,26.46
2018-11-21T17:25:46.547Z,26.42
2018-11-21T17:28:13.182Z,26.40
2018-11-21T17:30:39.824Z,26.32
2018-11-21T17:33:06.461Z,26.30
2018-11-21T17:35:33.219Z,26.27
2018-11-21T17:38:02.119Z,26.22
2018-11-21T17:40:26.536Z,26.18
2018-11-21T17:42:53.165Z,26.13
2018-11-21T17:45:19.952Z,26.12
2018-11-21T17:47:46.591Z,26.07
2018-11-21T17:50:13.239Z,26.04
2018-11-21T17:52:39.877Z,26.01
2018-11-21T17:55:06.578Z,25.98
2018-11-21T17:57:33.222Z,25.95
2018-11-21T17:59:59.914Z,25.85
2018-11-21T18:02:26.607Z,25.80
2018-11-21T18:04:53.345Z,25.80
2018-11-21T18:07:19.873Z,25.75
2018-11-21T18:09:46.571Z,25.67
2018-11-21T18:12:13.209Z,25.63
2018-11-21T18:14:39.856Z,25.47
2018-11-21T18:17:06.566Z,25.39
2018-11-21T18:19:33.268Z,25.52
2018-11-21T18:21:59.914Z,25.48
2018-11-21T18:24:26.609Z,25.47
2018-11-21T18:26:53.272Z,25.37
2018-11-21T18:29:19.918Z,25.32
2018-11-21T18:31:46.569Z,25.30
2018-11-21T18:34:13.226Z,25.29
2018-11-21T18:36:39.871Z,25.23
2018-11-21T18:39:06.522Z,25.21
2018-11-21T18:41:33.236Z,25.12
2018-11-21T18:43:59.878Z,25.16
2018-11-21T18:46:26.591Z,25.12
2018-11-21T18:48:53.241Z,25.06
2018-11-21T18:51:19.880Z,25.03
2018-11-21T18:53:46.525Z,24.98
2018-11-21T18:56:13.261Z,24.95
2018-11-21T18:58:39.902Z,24.89
2018-11-21T19:01:06.559Z,24.81
2018-11-21T19:03:33.256Z,24.83
2018-11-21T19:05:59.902Z,24.81
2018-11-21T19:08:26.634Z,24.75
2018-11-21T19:10:53.276Z,24.67
2018-11-21T19:13:19.922Z,24.65
2018-11-21T19:15:46.573Z,24.64
2018-11-21T19:18:13.212Z,24.63
2018-11-21T19:20:39.851Z,24.60
2018-11-21T19:23:06.505Z,24.57
2018-11-21T19:25:33.210Z,24.50
2018-11-21T19:27:59.784Z,24.50
2018-11-21T19:30:26.520Z,24.42
2018-11-21T19:32:53.179Z,24.44
2018-11-21T19:35:19.822Z,24.44
2018-11-21T19:37:46.467Z,24.36
2018-11-21T19:40:13.111Z,24.36
2018-11-21T19:42:39.803Z,24.34
2018-11-21T19:45:08.332Z,24.29
2018-11-21T19:47:33.107Z,24.30
2018-11-21T19:49:59.809Z,24.26
2018-11-21T19:52:26.453Z,24.21
2018-11-21T19:54:53.087Z,24.19
2018-11-21T19:57:19.784Z,24.19
2018-11-21T19:59:46.424Z,24.10
2018-11-21T20:02:13.121Z,24.09
2018-11-21T20:04:39.761Z,24.04
2018-11-21T20:07:06.458Z,24.04
2018-11-21T20:09:33.104Z,24.03
2018-11-21T20:11:59.808Z,24.05
2018-11-21T20:14:26.452Z,24.00
2018-11-21T20:16:53.098Z,23.97
2018-11-21T20:19:19.746Z,24.00
2018-11-21T20:21:46.379Z,23.99
2018-11-21T20:24:13.064Z,23.98
2018-11-21T20:26:39.754Z,23.90
2018-11-21T20:29:06.438Z,23.91
2018-11-21T20:31:33.082Z,23.91
2018-11-21T20:33:59.726Z,23.86
2018-11-21T20:36:26.382Z,23.84
2018-11-21T20:38:53.074Z,23.85
2018-11-21T20:41:19.710Z,23.82
2018-11-21T20:43:46.354Z,23.80
2018-11-21T20:46:13.004Z,23.80
2018-11-21T20:48:39.687Z,23.78
2018-11-21T20:51:06.387Z,23.73
2018-11-21T20:53:33.031Z,23.72
2018-11-21T20:55:59.670Z,23.71
2018-11-21T20:58:26.309Z,23.70
2018-11-21T21:00:52.945Z,23.68
2018-11-21T21:03:19.600Z,23.60
2018-11-21T21:05:46.257Z,23.65
2018-11-21T21:08:12.908Z,23.61
2018-11-21T21:10:39.601Z,23.63
2018-11-21T21:13:06.243Z,23.61
2018-11-21T21:15:32.883Z,23.58
2018-11-21T21:17:59.542Z,23.53
2018-11-21T21:20:26.179Z,23.49
2018-11-21T21:22:52.838Z,23.45
2018-11-21T21:25:19.481Z,23.45
2018-11-21T21:27:46.122Z,23.42
2018-11-21T21:30:12.763Z,23.39
2018-11-21T21:32:39.405Z,23.39
2018-11-21T21:35:06.063Z,23.39
2018-11-21T21:37:32.750Z,23.34
2018-11-21T21:39:59.405Z,23.33
2018-11-21T21:42:26.060Z,23.35
2018-11-21T21:44:52.766Z,23.31
2018-11-21T21:47:19.466Z,23.31
2018-11-21T21:49:46.112Z,23.27
2018-11-21T21:52:12.780Z,23.28
2018-11-21T21:54:39.387Z,23.28
2018-11-21T21:57:06.080Z,23.26
2018-11-21T21:59:32.717Z,23.27
2018-11-21T22:01:59.353Z,23.24
2018-11-21T22:04:26.001Z,23.22
2018-11-21T22:06:52.640Z,23.25
2018-11-21T22:09:20.647Z,23.22
2018-11-21T22:11:45.945Z,23.21
2018-11-21T22:14:12.585Z,23.19
2018-11-21T22:16:39.220Z,23.18
2018-11-21T22:19:05.920Z,23.17
2018-11-21T22:21:32.547Z,23.23
2018-11-21T22:23:59.195Z,23.19
2018-11-21T22:26:25.842Z,23.16
2018-11-21T22:28:52.476Z,23.16
2018-11-21T22:31:19.171Z,23.15
2018-11-21T22:33:45.812Z,23.13
2018-11-21T22:36:12.503Z,23.13
2018-11-21T22:38:39.150Z,23.14
2018-11-21T22:41:05.789Z,23.13
2018-11-21T22:43:32.447Z,23.15
2018-11-21T22:45:59.093Z,23.15
2018-11-21T22:48:25.779Z,23.14
2018-11-21T22:50:52.412Z,23.14
2018-11-21T22:53:19.102Z,23.11
2018-11-21T22:55:45.770Z,23.16
2018-11-21T22:58:12.415Z,23.08
2018-11-21T23:00:39.057Z,23.09
2018-11-21T23:03:05.703Z,23.11
2018-11-21T23:05:37.639Z,23.10
2018-11-21T23:07:59.049Z,23.08
2018-11-21T23:10:25.694Z,23.08
2018-11-21T23:12:52.369Z,23.08
2018-11-21T23:15:19.004Z,23.05
2018-11-21T23:17:45.658Z,23.04
2018-11-21T23:20:12.440Z,23.09
2018-11-21T23:22:39.080Z,23.03
2018-11-21T23:25:05.764Z,23.03
2018-11-21T23:27:32.401Z,23.06
2018-11-21T23:29:59.099Z,23.05
2018-11-21T23:32:25.793Z,23.04
2018-11-21T23:34:52.441Z,23.00
2018-11-21T23:37:19.083Z,23.01
2018-11-21T23:39:45.740Z,22.99
2018-11-21T23:42:12.371Z,23.03
2018-11-21T23:44:39.025Z,22.99
2018-11-21T23:47:05.714Z,22.99
2018-11-21T23:49:32.351Z,22.96
2018-11-21T23:51:58.988Z,22.97
2018-11-21T23:54:25.682Z,22.94
2018-11-21T23:57:15.748Z,22.97
2018-11-21T23:59:19.005Z,22.91
